Time;durP1;ratioP1;P1;durP2;ratioP2;P2;SDS_P1;SDS_P2;PMS_P1;PMS_P2;Temp;Humidity;BMP_temperature;BMP_pressure;BME280_temperature;BME280_humidity;BME280_pressure;Samples;Min_cycle;Max_cycle;Signal;HPM_P1;HPM_P2
2022/05/19 00:02:06;;;;;;;5.72;1.80;;;17.50;62.50;;;;;;12334529;24;20266;-78
2022/05/19 00:07:09;;;;;;;2.83;1.85;;;17.70;61.90;;;;;;12339490;24;20656;-78
2022/05/19 00:12:18;;;;;;;4.22;2.13;;;18.00;61.40;;;;;;12317801;24;20182;-78
2022/05/19 00:17:20;;;;;;;6.25;2.92;;;17.50;61.70;;;;;;12356017;24;20177;-78
2022/05/19 00:22:22;;;;;;;9.23;3.00;;;16.70;62.40;;;;;;12339493;24;20217;-78
2022/05/19 00:27:25;;;;;;;2.63;1.73;;;16.40;64.30;;;;;;12339342;24;20189;-78
2022/05/19 00:32:27;;;;;;;4.05;2.00;;;16.70;64.30;;;;;;12318318;24;20206;-77
2022/05/19 00:37:29;;;;;;;5.68;1.92;;;16.20;65.40;;;;;;12339104;24;20271;-78
2022/05/19 00:42:44;;;;;;;3.63;1.92;;;16.60;64.90;;;;;;12339340;24;20230;-78
2022/05/19 00:48:04;;;;;;;4.75;3.13;;;16.80;64.20;;;;;;12317168;24;20181;-78
2022/05/19 00:53:24;;;;;;;4.63;2.00;;;16.90;63.80;;;;;;12355419;24;20177;-78
2022/05/19 00:58:33;;;;;;;2.33;1.50;;;16.80;64.50;;;;;;12334315;24;20214;-78
2022/05/19 01:03:46;;;;;;;2.65;2.15;;;16.10;65.90;;;;;;12317035;24;20208;-78
2022/05/19 01:08:54;;;;;;;3.42;2.33;;;16.00;66.20;;;;;;12314960;24;20218;-77
2022/05/19 01:13:57;;;;;;;3.53;2.35;;;16.20;65.70;;;;;;12354528;24;20177;-78
2022/05/19 01:19:02;;;;;;;5.38;2.75;;;16.40;65.70;;;;;;12316921;24;20177;-78
2022/05/19 01:24:12;;;;;;;2.58;1.70;;;16.30;64.60;;;;;;12326804;24;20265;-78
2022/05/19 01:29:19;;;;;;;2.45;1.58;;;16.40;65.60;;;;;;12337545;24;20180;-78
2022/05/19 01:34:25;;;;;;;3.55;2.10;;;17.40;63.60;;;;;;12332550;24;20170;-77
2022/05/19 01:39:30;;;;;;;3.10;1.25;;;17.90;62.40;;;;;;12337591;24;20189;-78
2022/05/19 01:45:14;;;;;;;6.43;3.20;;;18.20;61.60;;;;;;12315950;24;20230;-78
2022/05/19 01:50:24;;;;;;;4.35;3.40;;;17.60;60.00;;;;;;12332070;24;20199;-78
2022/05/19 01:55:32;;;;;;;4.15;2.88;;;16.20;63.80;;;;;;12323432;24;20177;-78
2022/05/19 02:00:35;;;;;;;2.13;1.60;;;15.50;65.50;;;;;;12330084;24;20188;-78
2022/05/19 02:05:44;;;;;;;3.28;2.13;;;16.10;66.60;;;;;;12314258;24;20185;-78
2022/05/19 02:10:53;;;;;;;4.57;2.65;;;16.60;65.10;;;;;;12322552;24;20580;-77
2022/05/19 02:15:57;;;;;;;7.53;2.28;;;16.00;65.30;;;;;;12331373;24;20173;-78
2022/05/19 02:21:02;;;;;;;3.65;2.65;;;15.70;65.80;;;;;;12316092;24;20196;-77
2022/05/19 02:26:05;;;;;;;3.15;2.50;;;15.60;67.40;;;;;;12317380;24;20259;-78
2022/05/19 02:31:09;;;;;;;3.55;2.03;;;15.90;66.30;;;;;;12316347;24;20185;-78
2022/05/19 02:36:11;;;;;;;5.03;2.10;;;15.80;66.90;;;;;;12315845;24;20177;-78
2022/05/19 02:41:14;;;;;;;3.40;2.50;;;16.40;66.00;;;;;;12319921;24;20238;-78
2022/05/19 02:46:16;;;;;;;5.55;2.10;;;16.70;65.00;;;;;;12315694;24;20198;-77
2022/05/19 02:51:18;;;;;;;3.88;1.92;;;16.70;64.90;;;;;;12313468;24;20218;-78
2022/05/19 02:56:21;;;;;;;8.65;3.25;;;16.70;65.20;;;;;;12315692;24;20234;-77
2022/05/19 03:01:23;;;;;;;3.58;2.22;;;16.50;64.40;;;;;;12331462;24;20900;-78
2022/05/19 03:06:26;;;;;;;4.90;2.30;;;16.50;65.40;;;;;;12332403;24;20173;-77
2022/05/19 03:11:28;;;;;;;3.38;1.80;;;16.60;65.20;;;;;;12313345;24;20253;-78
2022/05/19 03:16:31;;;;;;;4.05;2.55;;;16.60;65.20;;;;;;12315755;24;20177;-78
2022/05/19 03:21:33;;;;;;;3.33;2.33;;;16.50;64.80;;;;;;12315321;24;20509;-78
2022/05/19 03:26:36;;;;;;;6.43;2.47;;;16.40;65.30;;;;;;12315861;24;20197;-78
2022/05/19 03:31:39;;;;;;;3.33;1.92;;;16.30;65.40;;;;;;12316011;24;20177;-78
2022/05/19 03:36:41;;;;;;;2.95;2.58;;;16.40;65.30;;;;;;12315806;24;20173;-78
2022/05/19 03:41:47;;;;;;;2.90;2.08;;;16.50;65.30;;;;;;12322037;24;20185;-77
2022/05/19 03:46:50;;;;;;;4.13;2.03;;;16.60;65.20;;;;;;12317829;24;20238;-78
2022/05/19 03:51:54;;;;;;;2.55;2.00;;;17.00;64.60;;;;;;12334829;24;20182;-78
2022/05/19 03:56:56;;;;;;;6.95;2.50;;;17.20;63.60;;;;;;12318449;24;20498;-78
2022/05/19 04:02:02;;;;;;;1.85;1.60;;;16.80;64.40;;;;;;12356517;24;20253;-78
2022/05/19 04:07:17;;;;;;;3.80;2.13;;;16.80;64.50;;;;;;12318227;24;20237;-77
2022/05/19 04:12:20;;;;;;;4.30;1.92;;;17.30;63.90;;;;;;12338839;24;20189;-77
2022/05/19 04:17:23;;;;;;;3.10;2.15;;;17.50;63.30;;;;;;12316529;24;20181;-78
2022/05/19 04:22:25;;;;;;;4.20;2.42;;;17.60;63.20;;;;;;12317317;24;20269;-78
2022/05/19 04:27:28;;;;;;;5.60;2.65;;;17.50;62.70;;;;;;12317814;24;20238;-77
2022/05/19 04:32:31;;;;;;;3.95;2.40;;;16.90;64.10;;;;;;12317638;24;20230;-78
2022/05/19 04:37:36;;;;;;;4.63;2.45;;;17.00;64.10;;;;;;12317390;24;20169;-78
2022/05/19 04:42:38;;;;;;;4.78;2.47;;;17.00;64.40;;;;;;12317405;24;20197;-78
2022/05/19 04:47:41;;;;;;;9.25;4.00;;;16.90;64.60;;;;;;12317764;24;20169;-78
2022/05/19 04:52:44;;;;;;;3.35;2.35;;;17.00;63.60;;;;;;12318642;24;20206;-78
2022/05/19 04:57:46;;;;;;;2.95;2.13;;;17.00;64.30;;;;;;12318669;24;20177;-77
2022/05/19 05:02:49;;;;;;;9.38;3.45;;;16.90;64.80;;;;;;12339746;23;20238;-78
2022/05/19 05:07:51;;;;;;;4.05;2.70;;;17.10;63.20;;;;;;12317896;24;20177;-78
2022/05/19 05:12:54;;;;;;;4.53;2.42;;;17.10;63.80;;;;;;12331805;24;20201;-78
2022/05/19 05:17:56;;;;;;;4.30;2.10;;;17.00;64.30;;;;;;12335947;24;20185;-78
2022/05/19 05:22:58;;;;;;;9.93;4.20;;;16.70;64.00;;;;;;12338832;24;20295;-78
2022/05/19 05:28:03;;;;;;;5.45;2.55;;;15.80;65.10;;;;;;12334181;24;20972;-78
2022/05/19 05:33:09;;;;;;;18.27;6.22;;;15.90;65.50;;;;;;12317430;24;20173;-77
2022/05/19 05:38:12;;;;;;;13.30;4.85;;;16.00;60.70;;;;;;12317885;24;20185;-77
2022/05/19 05:43:19;;;;;;;4.50;3.58;;;15.90;62.30;;;;;;12355889;24;20541;-77
2022/05/19 05:48:21;;;;;;;7.07;2.70;;;17.10;60.80;;;;;;12338763;24;20240;-78
2022/05/19 05:53:24;;;;;;;2.22;1.33;;;17.20;63.80;;;;;;12336359;24;20848;-77
2022/05/19 05:58:26;;;;;;;1.73;1.55;;;17.60;63.40;;;;;;12332223;24;20614;-77
2022/05/19 06:03:29;;;;;;;16.77;5.30;;;17.10;63.70;;;;;;12314322;24;20593;-77
2022/05/19 06:08:33;;;;;;;15.20;6.00;;;18.30;55.10;;;;;;12317282;24;20218;-77
2022/05/19 06:13:36;;;;;;;17.35;5.35;;;18.30;55.50;;;;;;12332644;24;20237;-77
2022/05/19 06:18:41;;;;;;;15.27;6.40;;;17.90;56.30;;;;;;12370975;24;20177;-76
2022/05/19 06:23:44;;;;;;;15.53;6.00;;;14.50;59.90;;;;;;12356742;24;20209;-76
2022/05/19 06:28:47;;;;;;;20.93;5.77;;;13.70;62.10;;;;;;12382473;24;20188;-75
2022/05/19 06:33:49;;;;;;;18.17;6.70;;;13.90;65.80;;;;;;12362772;24;20173;-76
2022/05/19 06:38:52;;;;;;;18.30;6.47;;;13.90;64.80;;;;;;12365873;24;20207;-77
2022/05/19 06:43:54;;;;;;;10.07;4.83;;;13.90;64.10;;;;;;12362501;24;20697;-77
2022/05/19 06:48:57;;;;;;;12.23;6.00;;;14.30;65.90;;;;;;12350357;24;20173;-78
2022/05/19 06:54:00;;;;;;;13.20;5.23;;;14.60;64.50;;;;;;12379785;24;20205;-76
2022/05/19 06:59:03;;;;;;;24.50;6.73;;;15.00;64.50;;;;;;12359153;24;20232;-76
2022/05/19 07:04:06;;;;;;;13.97;5.40;;;15.20;64.10;;;;;;12358890;24;20193;-77
2022/05/19 07:09:07;;;;;;;19.77;5.97;;;15.60;63.90;;;;;;12360512;24;20167;-76
2022/05/19 07:14:10;;;;;;;11.17;4.90;;;15.90;65.00;;;;;;12364285;24;20179;-75
2022/05/19 07:24:34;;;;;;;17.90;5.63;;;16.60;62.60;;;;;;12371333;24;20205;-77
2022/05/19 07:29:36;;;;;;;16.60;5.20;;;17.00;63.30;;;;;;12358604;24;20173;-77
2022/05/19 07:34:40;;;;;;;10.80;5.00;;;17.20;63.30;;;;;;12357734;24;20181;-76
2022/05/19 07:39:43;;;;;;;15.93;5.57;;;17.60;61.50;;;;;;12334182;24;20185;-78
2022/05/19 07:44:46;;;;;;;15.23;5.27;;;17.80;60.80;;;;;;12324942;24;20317;-77
2022/05/19 07:49:51;;;;;;;15.30;4.93;;;18.20;62.00;;;;;;12319094;24;20166;-77
2022/05/19 07:54:55;;;;;;;20.60;6.20;;;18.40;61.10;;;;;;12318630;24;20181;-77
2022/05/19 07:59:57;;;;;;;12.00;5.07;;;18.70;62.40;;;;;;12319570;24;20173;-77
2022/05/19 08:04:59;;;;;;;13.70;4.03;;;19.00;59.10;;;;;;12318544;24;20197;-78
2022/05/19 08:10:20;;;;;;;17.80;4.32;;;19.60;59.30;;;;;;12319326;24;20177;-77
2022/05/19 08:15:34;;;;;;;14.15;4.53;;;19.80;60.90;;;;;;12336834;24;20177;-77
2022/05/19 08:20:42;;;;;;;7.07;3.03;;;20.10;59.40;;;;;;12335578;24;20169;-77
2022/05/19 08:25:46;;;;;;;11.63;3.75;;;20.20;57.10;;;;;;12323566;24;20257;-76
2022/05/19 08:30:51;;;;;;;5.15;2.83;;;20.10;55.80;;;;;;12294699;24;20206;-77
2022/05/19 08:35:54;;;;;;;4.25;2.30;;;20.40;57.50;;;;;;12294377;24;20237;-76
2022/05/19 08:41:08;;;;;;;5.65;2.78;;;20.60;57.10;;;;;;12319140;24;20177;-78
2022/05/19 08:46:27;;;;;;;7.32;2.55;;;20.80;56.90;;;;;;12336224;24;20169;-78
2022/05/19 08:51:39;;;;;;;3.22;2.15;;;21.00;57.40;;;;;;12318317;24;20173;-77
2022/05/19 08:56:50;;;;;;;5.10;2.88;;;21.10;56.40;;;;;;12323239;24;20868;-76
2022/05/19 09:02:01;;;;;;;7.40;3.00;;;21.20;55.40;;;;;;12316553;24;20205;-77
2022/05/19 09:12:32;;;;;;;3.85;2.40;;;21.40;55.60;;;;;;12319361;24;20181;-77
2022/05/19 09:17:40;;;;;;;3.58;2.30;;;21.50;55.50;;;;;;12334938;24;20206;-77
2022/05/19 09:22:42;;;;;;;2.30;2.10;;;21.60;60.30;;;;;;12333591;24;20257;-76
2022/05/19 09:27:48;;;;;;;3.65;2.28;;;21.50;55.30;;;;;;12318229;24;20185;-77
2022/05/19 09:32:53;;;;;;;8.52;3.38;;;;;;;;;;12309040;24;20517;-76
2022/05/19 09:38:32;;;;;;;5.35;3.03;;;21.70;56.90;;;;;;12315128;24;20226;-77
2022/05/19 09:43:37;;;;;;;4.25;3.17;;;21.90;55.80;;;;;;12334607;24;20253;-77
2022/05/19 09:48:49;;;;;;;3.45;2.50;;;21.80;56.00;;;;;;12319057;24;20198;-77
2022/05/19 09:53:57;;;;;;;9.70;3.03;;;21.90;55.10;;;;;;12335012;24;20241;-77
2022/05/19 09:59:16;;;;;;;3.22;2.03;;;22.00;57.30;;;;;;12294080;24;20189;-77
2022/05/19 10:04:26;;;;;;;2.78;1.90;;;22.10;55.10;;;;;;12334916;24;20193;-76
2022/05/19 10:09:39;;;;;;;10.23;1.83;;;21.90;54.50;;;;;;12332977;24;20206;-77
2022/05/19 10:14:42;;;;;;;6.88;2.25;;;22.00;55.70;;;;;;12307194;24;20169;-77
2022/05/19 10:20:15;;;;;;;3.58;2.08;;;22.00;55.20;;;;;;12316655;24;20177;-78
2022/05/19 10:25:29;;;;;;;2.90;2.30;;;22.10;54.20;;;;;;12325614;24;20536;-77
2022/05/19 10:31:07;;;;;;;2.78;2.10;;;22.50;54.90;;;;;;12331508;24;20173;-77
2022/05/19 10:36:25;;;;;;;2.70;2.17;;;22.40;53.60;;;;;;12330173;24;20173;-77
2022/05/19 10:41:46;;;;;;;3.97;2.03;;;22.40;53.30;;;;;;12310891;24;20739;-77
2022/05/19 10:47:27;;;;;;;2.95;1.95;;;22.10;53.90;;;;;;12329303;24;20173;-78
2022/05/19 10:52:50;;;;;;;4.32;2.33;;;22.30;54.00;;;;;;12197382;24;20186;-77
2022/05/19 10:58:20;;;;;;;5.20;2.75;;;22.40;54.70;;;;;;12197524;24;20650;-77
2022/05/19 11:04:12;;;;;;;2.95;1.77;;;22.60;53.20;;;;;;12196090;24;20207;-77
2022/05/19 11:09:20;;;;;;;6.40;2.70;;;22.80;53.40;;;;;;12202091;24;20186;-77
2022/05/19 11:14:51;;;;;;;9.63;2.95;;;23.50;51.20;;;;;;12207699;24;20635;-77
2022/05/19 11:20:10;;;;;;;2.75;1.88;;;23.40;52.00;;;;;;12210236;24;20247;-78
2022/05/19 11:30:58;;;;;;;8.63;2.60;;;23.00;52.20;;;;;;12316848;24;20223;-77
2022/05/19 11:36:14;;;;;;;2.17;1.60;;;23.40;52.00;;;;;;12329815;24;20562;-77
2022/05/19 11:41:26;;;;;;;6.85;2.15;;;23.10;52.10;;;;;;12336791;23;20249;-77
2022/05/19 11:46:33;;;;;;;4.03;2.13;;;23.10;53.10;;;;;;12332618;24;20305;-77
2022/05/19 11:57:07;;;;;;;4.30;2.00;;;23.00;52.20;;;;;;12313845;24;20570;-77
2022/05/19 12:02:10;;;;;;;6.78;2.05;;;23.30;52.00;;;;;;12352505;24;20249;-77
2022/05/19 12:07:24;;;;;;;2.45;1.83;;;23.10;51.90;;;;;;12314833;24;20173;-76
2022/05/19 12:12:31;;;;;;;5.05;2.88;;;22.40;53.10;;;;;;12314424;24;20206;-77
2022/05/19 12:17:56;;;;;;;4.63;2.00;;;23.00;52.90;;;;;;12329449;24;20203;-77
2022/05/19 12:23:24;;;;;;;3.70;2.13;;;22.90;52.40;;;;;;12329298;24;20239;-76
2022/05/19 12:28:31;;;;;;;4.05;2.13;;;22.10;54.00;;;;;;12331353;24;20173;-77
2022/05/19 12:33:37;;;;;;;2.97;1.90;;;22.70;53.80;;;;;;12313939;24;20229;-77
2022/05/19 12:38:43;;;;;;;3.83;1.90;;;22.90;52.80;;;;;;12289504;24;20222;-77
2022/05/19 12:43:47;;;;;;;2.38;2.08;;;22.00;54.10;;;;;;12314038;24;20262;-77
2022/05/19 12:49:08;;;;;;;7.82;2.60;;;22.00;54.20;;;;;;12313502;24;20203;-77
2022/05/19 12:54:10;;;;;;;3.92;1.77;;;22.80;53.40;;;;;;12327812;24;20181;-77
2022/05/19 12:59:23;;;;;;;2.40;2.20;;;22.90;53.00;;;;;;12310561;24;20233;-78
2022/05/19 13:04:35;;;;;;;3.47;2.22;;;23.20;52.30;;;;;;12310328;24;20672;-76
2022/05/19 13:09:39;;;;;;;2.67;1.90;;;22.50;53.10;;;;;;12308306;24;20185;-76
2022/05/19 13:14:50;;;;;;;2.38;2.17;;;23.00;52.10;;;;;;12309432;24;20250;-76
2022/05/19 13:19:52;;;;;;;4.13;2.00;;;23.80;51.10;;;;;;12327332;24;20237;-77
2022/05/19 13:25:00;;;;;;;7.78;3.28;;;23.70;51.60;;;;;;12309592;24;20201;-77
2022/05/19 13:30:20;;;;;;;9.00;2.80;;;23.80;52.60;;;;;;12326844;24;20513;-77
2022/05/19 13:35:23;;;;;;;17.13;3.35;;;23.70;50.80;;;;;;12310000;24;20253;-77
2022/05/19 13:40:29;;;;;;;2.08;1.75;;;23.90;50.60;;;;;;12310934;24;20181;-77
2022/05/19 13:45:49;;;;;;;1.77;1.60;;;23.90;50.70;;;;;;12325977;24;20193;-77
2022/05/19 13:50:52;;;;;;;3.33;2.03;;;23.00;52.30;;;;;;12286181;24;20185;-77
2022/05/19 13:55:57;;;;;;;2.08;1.70;;;22.70;52.80;;;;;;12310581;24;20181;-77
2022/05/19 14:01:01;;;;;;;1.90;1.80;;;22.80;53.00;;;;;;12286455;24;20562;-77
2022/05/19 14:06:04;;;;;;;3.92;2.30;;;22.40;54.00;;;;;;12310656;24;20192;-78
2022/05/19 14:11:06;;;;;;;1.70;1.55;;;23.10;52.80;;;;;;12310577;24;20177;-78
2022/05/19 14:16:16;;;;;;;2.72;2.38;;;23.50;52.10;;;;;;12309387;24;20172;-78
2022/05/19 14:21:24;;;;;;;7.07;2.35;;;23.40;52.10;;;;;;12328878;24;20229;-78
2022/05/19 14:26:54;;;;;;;2.97;2.03;;;23.70;51.70;;;;;;12314619;24;20217;-78
2022/05/19 14:32:17;;;;;;;2.85;1.80;;;23.70;51.80;;;;;;12311940;24;20185;-78
2022/05/19 14:37:29;;;;;;;10.65;2.67;;;23.40;52.00;;;;;;12311474;24;20235;-78
2022/05/19 14:47:54;;;;;;;3.47;1.80;;;23.20;52.40;;;;;;12325693;24;20198;-78
2022/05/19 14:53:09;;;;;;;2.15;1.92;;;23.10;51.20;;;;;;12306730;24;20245;-78
2022/05/19 14:58:21;;;;;;;2.53;1.77;;;23.50;50.40;;;;;;12309758;24;20219;-78
2022/05/19 15:03:24;;;;;;;3.88;2.05;;;23.30;52.00;;;;;;12290073;24;20209;-78
2022/05/19 15:08:28;;;;;;;5.45;2.15;;;22.80;53.00;;;;;;12289701;24;20241;-78
2022/05/19 15:13:32;;;;;;;12.68;2.60;;;23.10;52.30;;;;;;12314180;24;20177;-78
2022/05/19 15:18:37;;;;;;;7.20;2.90;;;24.30;50.30;;;;;;12312535;24;20491;-77
2022/05/19 15:49:08;;;;;;;6.15;3.72;;;22.60;56.10;;;;;;12577889;23;20179;-94
2022/05/19 16:15:15;;;;;;;6.93;3.47;;;22.70;57.30;;;;;;12646946;23;20208;-76
2022/05/19 16:20:21;;;;;;;6.13;3.78;;;22.60;56.90;;;;;;12662175;23;20245;-77
2022/05/19 16:25:26;;;;;;;3.42;2.25;;;22.80;57.00;;;;;;12684582;23;20188;-77
2022/05/19 16:30:32;;;;;;;4.68;3.05;;;23.20;54.30;;;;;;12683925;23;20170;-77
2022/05/19 16:35:36;;;;;;;6.13;4.03;;;24.20;50.00;;;;;;12639676;23;20181;-77
2022/05/19 16:40:39;;;;;;;25.77;3.97;;;23.70;54.40;;;;;;12665901;23;20173;-77
2022/05/19 16:45:42;;;;;;;10.63;4.60;;;23.80;55.30;;;;;;12682487;23;20768;-77
2022/05/19 16:50:44;;;;;;;6.22;3.65;;;23.40;57.90;;;;;;12662719;23;20426;-78
2022/05/19 17:01:08;;;;;;;8.68;5.03;;;22.70;60.60;;;;;;12661369;23;20189;-77
2022/05/19 17:06:10;;;;;;;8.02;2.53;;;22.80;59.80;;;;;;12631169;23;20204;-77
2022/05/19 17:11:13;;;;;;;14.27;2.55;;;23.00;55.50;;;;;;12636762;23;20559;-77
2022/05/19 17:16:16;;;;;;;10.63;1.98;;;23.40;53.00;;;;;;12668867;23;20197;-77
2022/05/19 17:21:21;;;;;;;38.47;6.28;;;23.50;53.70;;;;;;12643524;23;20181;-93
2022/05/19 17:26:24;;;;;;;6.30;1.80;;;23.50;51.80;;;;;;12643570;23;20606;-94
2022/05/19 17:31:27;;;;;;;8.30;2.10;;;23.50;50.10;;;;;;12644463;23;20228;-94
2022/05/19 17:36:30;;;;;;;8.07;2.00;;;23.50;50.50;;;;;;12645415;23;20177;-91
2022/05/19 17:41:33;;;;;;;11.57;1.50;;;23.30;52.40;;;;;;12643610;23;20189;-92
2022/05/19 17:46:37;;;;;;;8.60;1.65;;;23.10;52.10;;;;;;12668705;23;20233;-93
2022/05/19 17:51:40;;;;;;;13.15;3.80;;;23.00;55.30;;;;;;12668700;23;20228;-93
2022/05/19 17:56:42;;;;;;;11.98;5.68;;;22.70;55.10;;;;;;12640415;23;20578;-93
2022/05/19 18:01:46;;;;;;;13.85;4.05;;;22.40;56.40;;;;;;12642841;23;20185;-93
2022/05/19 18:06:49;;;;;;;27.75;4.15;;;22.00;56.50;;;;;;12643951;23;20584;-92
2022/05/19 18:11:52;;;;;;;15.43;3.35;;;21.60;60.00;;;;;;12643371;23;20177;-92
2022/05/19 18:22:16;;;;;;;9.88;2.85;;;20.80;58.80;;;;;;12666468;23;20535;-93
2022/05/19 18:27:27;;;;;;;6.10;3.08;;;20.50;60.40;;;;;;12643259;23;20663;-93
2022/05/19 18:32:29;;;;;;;16.08;3.33;;;20.10;60.60;;;;;;12640228;23;20181;-81
2022/05/19 18:37:33;;;;;;;25.08;4.13;;;19.60;62.80;;;;;;12666884;23;20193;-80
2022/05/19 18:47:59;;;;;;;15.50;3.35;;;20.50;61.30;;;;;;12674533;23;20525;-81
2022/05/19 18:53:02;;;;;;;9.35;3.28;;;20.40;62.30;;;;;;12642012;23;20181;-80
2022/05/19 18:58:05;;;;;;;16.38;3.95;;;20.40;62.50;;;;;;12667122;23;20169;-80
2022/05/19 19:03:08;;;;;;;17.00;2.85;;;20.50;62.60;;;;;;12640577;23;20252;-80
2022/05/19 19:08:10;;;;;;;14.38;3.20;;;20.30;63.10;;;;;;12669020;23;20224;-80
2022/05/19 19:13:13;;;;;;;21.42;4.32;;;20.80;62.20;;;;;;12646648;23;20781;-80
2022/05/19 19:18:16;;;;;;;4.40;2.72;;;20.40;63.50;;;;;;12671181;23;20173;-80
2022/05/19 19:23:19;;;;;;;16.85;3.78;;;20.30;63.50;;;;;;12645109;23;20643;-80
2022/05/19 19:28:22;;;;;;;23.75;4.63;;;20.30;63.50;;;;;;12646545;23;20220;-80
2022/05/19 19:33:24;;;;;;;10.02;3.53;;;20.40;62.80;;;;;;12666003;23;20169;-80
2022/05/19 19:38:48;;;;;;;10.38;3.38;;;19.60;65.40;;;;;;12662962;23;20165;-80
2022/05/19 19:43:50;;;;;;;12.35;3.58;;;19.60;65.40;;;;;;12662739;23;20421;-80
2022/05/19 19:48:58;;;;;;;19.92;5.22;;;19.50;65.80;;;;;;12640409;23;20240;-80
2022/05/19 19:54:00;;;;;;;7.88;3.70;;;19.00;65.60;;;;;;12659124;23;20200;-81
2022/05/19 19:59:03;;;;;;;16.77;4.85;;;19.20;66.90;;;;;;12666887;23;20283;-81
2022/05/19 20:04:06;;;;;;;5.18;3.30;;;18.90;65.30;;;;;;12640576;23;20644;-80
2022/05/19 20:09:09;;;;;;;15.20;5.82;;;18.60;68.30;;;;;;12667433;23;20530;-81
2022/05/19 20:14:12;;;;;;;7.28;3.72;;;19.10;66.00;;;;;;12666981;23;20512;-81
2022/05/19 20:19:14;;;;;;;2.45;2.10;;;19.10;67.80;;;;;;12668010;23;20173;-81
2022/05/19 20:24:18;;;;;;;8.38;4.65;;;19.50;67.00;;;;;;12618797;23;20603;-81
2022/05/19 20:29:21;;;;;;;5.00;2.38;;;20.00;65.70;;;;;;12670464;23;20166;-81
2022/05/19 20:34:23;;;;;;;7.90;4.18;;;19.70;65.80;;;;;;12646454;23;20271;-81
2022/05/19 20:39:26;;;;;;;15.00;3.53;;;19.70;65.90;;;;;;12648171;23;20201;-81
2022/05/19 20:44:29;;;;;;;4.47;2.42;;;19.20;67.20;;;;;;12672212;23;20189;-81
2022/05/19 20:49:33;;;;;;;9.60;3.10;;;19.20;67.40;;;;;;12673395;23;20173;-80
2022/05/19 20:54:36;;;;;;;5.35;2.92;;;19.30;66.00;;;;;;12673758;23;20169;-81
2022/05/19 20:59:39;;;;;;;10.25;3.17;;;19.20;66.80;;;;;;12646198;23;21017;-80
2022/05/19 21:04:43;;;;;;;7.28;3.42;;;19.40;66.70;;;;;;12645466;23;20240;-80
2022/05/19 21:09:46;;;;;;;10.43;4.40;;;19.30;66.60;;;;;;12673372;23;20181;-80
2022/05/19 21:14:48;;;;;;;13.63;4.55;;;19.30;64.80;;;;;;12680405;23;20232;-80
2022/05/19 21:19:51;;;;;;;12.73;4.40;;;18.70;67.90;;;;;;12622798;23;20181;-79
2022/05/19 21:30:15;;;;;;;9.80;4.38;;;19.00;68.00;;;;;;12748687;23;20225;-81
2022/05/19 21:35:18;;;;;;;5.80;2.00;;;18.00;69.90;;;;;;12706380;23;20161;-81
2022/05/19 21:40:22;;;;;;;13.88;5.15;;;18.80;69.70;;;;;;12730596;23;20256;-81
2022/05/19 21:45:25;;;;;;;14.90;5.13;;;19.00;67.90;;;;;;12748188;23;20236;-81
2022/05/19 21:50:28;;;;;;;12.07;4.68;;;18.90;67.10;;;;;;12731196;23;20237;-81
2022/05/19 21:55:30;;;;;;;11.43;4.20;;;18.30;67.80;;;;;;12730727;23;20212;-80
2022/05/19 22:00:39;;;;;;;7.75;4.25;;;17.70;70.90;;;;;;12730857;23;20237;-80
2022/05/19 22:05:44;;;;;;;8.73;4.65;;;17.60;69.60;;;;;;12704602;23;20248;-81
2022/05/19 22:10:47;;;;;;;8.48;4.53;;;17.50;70.30;;;;;;12745845;23;20252;-80
2022/05/19 22:15:49;;;;;;;9.30;4.30;;;17.40;70.90;;;;;;12704579;23;20269;-81
2022/05/19 22:20:52;;;;;;;10.32;4.32;;;17.20;73.30;;;;;;12705794;23;20224;-80
2022/05/19 22:25:56;;;;;;;17.42;5.05;;;17.50;72.00;;;;;;12730144;23;20264;-80
2022/05/19 22:31:00;;;;;;;5.18;2.15;;;17.40;73.20;;;;;;12721413;23;20149;-81
2022/05/19 22:36:04;;;;;;;9.15;3.17;;;17.70;73.90;;;;;;12723077;23;20224;-80
2022/05/19 22:41:07;;;;;;;16.73;4.28;;;17.50;74.80;;;;;;12705226;23;20153;-80
2022/05/19 22:46:09;;;;;;;13.35;5.22;;;17.10;75.50;;;;;;12704326;23;20193;-80
2022/05/19 22:51:12;;;;;;;15.23;5.57;;;16.30;75.30;;;;;;12696437;23;20161;-80
2022/05/19 22:56:15;;;;;;;12.23;4.65;;;16.90;75.50;;;;;;12698890;23;20173;-79
2022/05/19 23:01:17;;;;;;;8.15;3.70;;;17.70;74.00;;;;;;12697805;23;20173;-80
2022/05/19 23:06:20;;;;;;;9.38;4.38;;;17.50;75.30;;;;;;12696168;23;20261;-80
2022/05/19 23:11:22;;;;;;;4.95;3.00;;;17.40;75.70;;;;;;12672151;23;20181;-80
2022/05/19 23:16:24;;;;;;;11.00;4.90;;;17.20;77.00;;;;;;12700306;23;20197;-80
2022/05/19 23:21:27;;;;;;;8.38;3.58;;;17.50;74.50;;;;;;12714633;23;20196;-79
2022/05/19 23:26:30;;;;;;;8.48;3.65;;;17.50;75.40;;;;;;12696528;23;20193;-80
2022/05/19 23:31:33;;;;;;;4.13;3.13;;;17.20;76.30;;;;;;12669021;23;20185;-80
2022/05/19 23:36:36;;;;;;;11.25;4.50;;;17.60;75.90;;;;;;12697059;23;20169;-79
2022/05/19 23:41:38;;;;;;;9.30;2.50;;;17.70;75.10;;;;;;12702016;23;20173;-80
2022/05/19 23:46:41;;;;;;;3.42;2.67;;;18.00;74.20;;;;;;12702146;23;20240;-80
2022/05/19 23:51:43;;;;;;;2.42;2.10;;;18.20;73.60;;;;;;12696090;23;20165;-79
2022/05/19 23:56:45;;;;;;;6.38;4.00;;;18.10;74.10;;;;;;12694568;23;20820;-79
